Time;durP1;ratioP1;P1;durP2;ratioP2;P2;SDS_P1;SDS_P2;PMS_P1;PMS_P2;Temp;Humidity;BMP_temperature;BMP_pressure;BME280_temperature;BME280_humidity;BME280_pressure;Samples;Min_cycle;Max_cycle;Signal;HPM_P1;HPM_P2
2023/05/03 00:01:29;;;;;;;6.33;5.73;;;12.10;99.90;;;;;;5036225;28;20188;-69
2023/05/03 00:03:55;;;;;;;6.60;5.93;;;12.20;99.90;;;;;;5036250;28;20498;-70
2023/05/03 00:06:21;;;;;;;7.30;5.37;;;12.10;99.90;;;;;;5036279;28;20170;-69
2023/05/03 00:08:47;;;;;;;6.60;5.60;;;12.00;99.90;;;;;;5036280;28;20402;-69
2023/05/03 00:11:12;;;;;;;5.57;4.97;;;12.10;99.90;;;;;;5032764;28;20202;-69
2023/05/03 00:13:38;;;;;;;7.23;5.70;;;12.20;99.90;;;;;;5035783;28;20774;-69
2023/05/03 00:16:04;;;;;;;6.97;5.60;;;12.10;99.90;;;;;;5018249;28;20211;-69
2023/05/03 00:18:30;;;;;;;6.47;5.87;;;12.20;99.90;;;;;;5035805;28;20175;-69
2023/05/03 00:20:58;;;;;;;8.13;5.30;;;12.30;99.90;;;;;;5036063;28;20511;-70
2023/05/03 00:23:23;;;;;;;5.73;5.13;;;12.20;99.90;;;;;;5018597;28;20410;-70
2023/05/03 00:25:53;;;;;;;6.13;5.53;;;12.30;99.90;;;;;;5035875;28;20937;-70
2023/05/03 00:28:19;;;;;;;8.80;5.40;;;12.10;99.90;;;;;;5035632;28;20215;-69
2023/05/03 00:30:45;;;;;;;5.57;5.07;;;12.00;99.90;;;;;;5033435;28;20787;-69
2023/05/03 00:33:10;;;;;;;6.40;5.17;;;12.10;99.90;;;;;;5035894;28;20242;-69
2023/05/03 00:35:36;;;;;;;5.60;5.10;;;12.20;99.90;;;;;;5035770;28;20245;-69
2023/05/03 00:38:01;;;;;;;5.80;5.27;;;12.30;99.90;;;;;;5035763;28;20199;-69
2023/05/03 00:40:27;;;;;;;6.47;5.50;;;12.30;99.90;;;;;;5035670;28;20214;-70
2023/05/03 00:42:52;;;;;;;6.40;5.80;;;12.30;99.90;;;;;;5036236;28;20617;-70
2023/05/03 00:45:18;;;;;;;5.50;5.00;;;12.30;99.90;;;;;;5035789;28;20164;-69
2023/05/03 00:47:44;;;;;;;7.50;5.33;;;12.10;99.90;;;;;;5035364;28;20573;-69
2023/05/03 00:50:10;;;;;;;5.77;5.20;;;12.10;99.90;;;;;;5054990;23;20224;-76
2023/05/03 00:52:37;;;;;;;9.50;4.50;;;12.00;99.90;;;;;;5034422;28;20172;-76
2023/05/03 00:55:03;;;;;;;8.50;5.73;;;12.00;99.90;;;;;;5035884;28;20397;-75
2023/05/03 00:57:29;;;;;;;6.33;5.40;;;12.00;99.90;;;;;;5017984;28;20414;-74
2023/05/03 00:59:56;;;;;;;5.67;5.10;;;11.80;99.90;;;;;;5034975;28;20978;-75
2023/05/03 01:02:21;;;;;;;7.03;5.20;;;11.90;99.90;;;;;;5035292;28;20401;-76
2023/05/03 01:04:47;;;;;;;5.20;4.70;;;11.80;99.90;;;;;;5017264;28;20467;-76
2023/05/03 01:07:13;;;;;;;5.93;5.43;;;11.80;99.90;;;;;;5016592;28;20171;-76
2023/05/03 01:09:44;;;;;;;6.43;4.40;;;11.70;99.90;;;;;;5034710;28;20402;-76
2023/05/03 01:12:10;;;;;;;6.03;5.47;;;11.70;99.90;;;;;;5035412;28;20405;-76
2023/05/03 01:15:05;;;;;;;8.53;5.80;;;11.60;99.90;;;;;;5017248;28;20410;-76
2023/05/03 01:17:50;;;;;;;5.33;4.83;;;11.50;99.90;;;;;;5035148;28;20394;-76
2023/05/03 01:20:21;;;;;;;7.27;5.13;;;11.30;99.90;;;;;;5034623;28;20486;-76
2023/05/03 01:22:57;;;;;;;5.27;4.77;;;11.20;99.90;;;;;;5035261;28;20383;-76
2023/05/03 01:25:23;;;;;;;5.77;5.07;;;11.20;99.90;;;;;;5017149;28;20489;-76
2023/05/03 01:27:49;;;;;;;8.97;5.17;;;11.20;99.90;;;;;;5034944;28;20820;-76
2023/05/03 01:30:15;;;;;;;6.13;5.50;;;11.10;99.90;;;;;;5034497;28;20434;-76
2023/05/03 01:32:47;;;;;;;4.80;4.40;;;11.10;99.90;;;;;;5034736;28;20441;-76
2023/05/03 01:35:51;;;;;;;5.30;4.80;;;11.10;99.90;;;;;;5034624;28;20406;-76
2023/05/03 01:38:17;;;;;;;8.30;5.93;;;11.20;99.90;;;;;;5013303;28;20414;-75
2023/05/03 01:40:51;;;;;;;5.03;4.53;;;11.20;99.90;;;;;;5016593;28;20485;-75
2023/05/03 01:43:18;;;;;;;5.60;5.10;;;11.20;99.90;;;;;;5035065;28;20394;-74
2023/05/03 01:45:44;;;;;;;5.73;5.20;;;11.20;99.90;;;;;;5035148;28;20405;-75
2023/05/03 01:48:14;;;;;;;4.93;4.50;;;11.30;99.90;;;;;;5016878;28;20430;-75
2023/05/03 01:50:40;;;;;;;5.77;5.13;;;11.20;99.90;;;;;;5034723;28;20933;-75
2023/05/03 01:53:05;;;;;;;6.30;4.80;;;11.20;99.90;;;;;;5034622;28;20448;-75
2023/05/03 01:55:31;;;;;;;8.90;5.20;;;11.20;99.90;;;;;;5035856;28;20183;-74
2023/05/03 01:57:56;;;;;;;5.23;4.73;;;11.10;99.90;;;;;;5036164;28;20206;-76
2023/05/03 02:00:22;;;;;;;5.83;5.30;;;11.00;99.90;;;;;;5035525;28;20192;-76
2023/05/03 02:02:48;;;;;;;7.03;6.33;;;10.90;99.90;;;;;;5016727;28;20589;-76
2023/05/03 02:05:13;;;;;;;7.67;5.50;;;10.90;99.90;;;;;;5036497;28;20172;-75
2023/05/03 02:07:39;;;;;;;6.53;5.40;;;10.80;99.90;;;;;;5035324;28;20172;-75
2023/05/03 02:10:05;;;;;;;5.87;5.27;;;10.70;99.90;;;;;;5021931;28;20195;-75
2023/05/03 02:12:31;;;;;;;6.27;5.67;;;10.60;99.90;;;;;;5021772;28;20416;-75
2023/05/03 02:14:56;;;;;;;6.10;5.40;;;10.60;99.90;;;;;;5038995;28;20408;-75
2023/05/03 02:17:25;;;;;;;7.40;5.63;;;10.60;99.90;;;;;;5039112;28;20222;-74
2023/05/03 02:19:51;;;;;;;8.30;6.63;;;10.70;99.90;;;;;;5020306;28;20210;-75
2023/05/03 02:22:17;;;;;;;5.40;4.90;;;10.70;99.90;;;;;;5033241;28;20418;-75
2023/05/03 02:24:43;;;;;;;6.37;5.73;;;10.70;99.90;;;;;;5015962;28;20417;-74
2023/05/03 02:27:08;;;;;;;6.90;5.90;;;10.70;99.90;;;;;;5033644;28;20171;-74
2023/05/03 02:29:34;;;;;;;8.50;6.80;;;10.60;99.90;;;;;;5033595;28;20177;-75
2023/05/03 02:31:59;;;;;;;7.43;6.53;;;10.60;99.90;;;;;;5033701;28;20161;-74
2023/05/03 02:34:26;;;;;;;9.40;6.60;;;10.50;99.90;;;;;;5015912;28;20221;-73
2023/05/03 02:36:52;;;;;;;5.90;5.40;;;10.40;99.90;;;;;;5033625;28;20173;-73
2023/05/03 02:39:18;;;;;;;6.60;6.00;;;10.50;99.90;;;;;;5033879;28;20900;-73
2023/05/03 02:41:43;;;;;;;7.17;6.50;;;10.40;99.90;;;;;;5015222;28;20195;-73
2023/05/03 02:44:09;;;;;;;7.63;6.77;;;10.20;99.90;;;;;;5033277;28;20180;-74
2023/05/03 02:46:34;;;;;;;8.47;6.17;;;10.20;99.90;;;;;;5015671;28;20207;-74
2023/05/03 02:49:00;;;;;;;6.47;5.87;;;10.20;99.90;;;;;;5033083;28;20634;-74
2023/05/03 02:51:26;;;;;;;7.27;6.07;;;10.00;99.90;;;;;;5033237;28;20269;-73
2023/05/03 02:53:51;;;;;;;6.83;5.80;;;10.00;99.90;;;;;;5033295;28;20202;-73
2023/05/03 02:56:17;;;;;;;7.07;6.37;;;10.20;99.90;;;;;;5015410;28;20179;-74
2023/05/03 02:58:42;;;;;;;6.60;5.97;;;10.10;99.90;;;;;;5033212;28;20582;-73
2023/05/03 03:01:08;;;;;;;9.53;7.40;;;10.10;99.90;;;;;;5033087;28;20274;-74
2023/05/03 03:03:33;;;;;;;9.83;7.17;;;10.10;99.90;;;;;;5033183;28;20171;-74
2023/05/03 03:05:59;;;;;;;15.13;6.83;;;10.00;99.90;;;;;;5032930;28;20172;-74
2023/05/03 03:08:25;;;;;;;7.00;6.30;;;10.00;99.90;;;;;;5015325;28;20178;-74
2023/05/03 03:10:50;;;;;;;8.03;7.17;;;9.90;99.90;;;;;;5033005;28;20213;-74
2023/05/03 03:13:16;;;;;;;7.90;7.10;;;9.90;99.90;;;;;;5033110;28;20640;-73
2023/05/03 03:15:41;;;;;;;8.03;7.23;;;9.80;99.90;;;;;;5033461;28;20659;-72
2023/05/03 03:18:07;;;;;;;12.97;8.03;;;9.80;99.90;;;;;;5033178;28;20182;-74
2023/05/03 03:20:32;;;;;;;7.83;7.03;;;9.80;99.90;;;;;;5015138;28;20199;-74
2023/05/03 03:22:58;;;;;;;11.67;8.30;;;9.90;99.90;;;;;;5033023;28;20169;-74
2023/05/03 03:25:23;;;;;;;8.63;7.30;;;9.90;99.90;;;;;;5015012;28;20607;-73
2023/05/03 03:27:49;;;;;;;7.20;6.40;;;9.80;99.90;;;;;;5015148;28;20693;-74
2023/05/03 03:30:15;;;;;;;9.70;8.03;;;9.80;99.90;;;;;;5015159;28;20202;-73
2023/05/03 03:32:41;;;;;;;11.70;7.70;;;9.80;99.90;;;;;;5034098;28;20167;-74
2023/05/03 03:35:08;;;;;;;11.63;8.57;;;9.80;99.90;;;;;;5018825;28;20411;-73
2023/05/03 03:37:34;;;;;;;9.20;8.03;;;9.80;99.90;;;;;;5019214;28;20182;-73
2023/05/03 03:39:59;;;;;;;10.70;7.37;;;9.70;99.90;;;;;;5018690;28;20990;-74
2023/05/03 03:42:25;;;;;;;11.83;8.63;;;9.70;99.90;;;;;;5036873;28;20177;-73
2023/05/03 03:44:51;;;;;;;9.43;8.43;;;9.80;99.90;;;;;;5036771;28;20165;-73
2023/05/03 03:47:16;;;;;;;8.50;7.70;;;9.70;99.90;;;;;;5037096;28;20178;-74
2023/05/03 03:49:42;;;;;;;12.20;8.30;;;9.70;99.90;;;;;;5036355;28;20263;-74
2023/05/03 03:52:07;;;;;;;11.30;9.17;;;9.70;99.90;;;;;;5037046;28;20173;-72
2023/05/03 03:54:34;;;;;;;9.13;7.80;;;9.70;99.90;;;;;;5017114;28;20257;-74
2023/05/03 03:57:01;;;;;;;12.23;7.67;;;9.70;99.90;;;;;;5018531;28;20183;-73
2023/05/03 03:59:27;;;;;;;10.63;7.87;;;9.70;99.90;;;;;;5036489;28;20431;-73
2023/05/03 04:01:53;;;;;;;15.40;9.97;;;9.70;99.90;;;;;;5036424;28;20447;-73
2023/05/03 04:04:19;;;;;;;10.03;8.13;;;9.60;99.90;;;;;;5036012;28;20421;-75
2023/05/03 04:06:44;;;;;;;9.57;8.27;;;9.60;99.90;;;;;;5033348;28;20540;-73
2023/05/03 04:09:10;;;;;;;7.63;6.93;;;9.60;99.90;;;;;;5036257;28;20182;-72
2023/05/03 04:11:36;;;;;;;9.03;8.13;;;9.60;99.90;;;;;;5035939;28;20204;-73
2023/05/03 04:14:02;;;;;;;9.83;7.40;;;9.60;99.90;;;;;;5036214;28;20173;-73
2023/05/03 04:16:28;;;;;;;9.23;8.33;;;9.70;99.90;;;;;;5036241;28;20531;-73
2023/05/03 04:18:53;;;;;;;9.10;8.20;;;9.70;99.90;;;;;;5036307;28;20417;-73
2023/05/03 04:21:19;;;;;;;11.23;9.20;;;9.70;99.90;;;;;;5035832;28;20619;-73
2023/05/03 04:23:45;;;;;;;11.30;8.70;;;9.70;99.90;;;;;;5017876;28;20649;-74
2023/05/03 04:26:10;;;;;;;13.13;9.23;;;9.80;99.90;;;;;;5018082;28;20171;-73
2023/05/03 04:28:37;;;;;;;10.97;9.27;;;9.80;99.90;;;;;;5036120;28;20225;-73
2023/05/03 04:31:03;;;;;;;11.17;8.40;;;9.80;99.90;;;;;;5018124;28;20442;-73
2023/05/03 04:33:30;;;;;;;12.10;9.40;;;10.00;99.90;;;;;;5036182;28;20448;-74
2023/05/03 04:35:56;;;;;;;10.43;8.13;;;10.10;99.90;;;;;;5035625;28;20413;-74
2023/05/03 04:38:22;;;;;;;11.20;9.00;;;10.20;99.90;;;;;;5035849;28;20410;-74
2023/05/03 04:40:47;;;;;;;12.00;8.90;;;10.40;99.90;;;;;;5017704;28;20460;-74
2023/05/03 04:43:13;;;;;;;13.23;10.53;;;10.60;99.90;;;;;;5018046;28;20231;-73
2023/05/03 04:45:39;;;;;;;16.80;13.30;;;10.60;99.90;;;;;;5017203;28;20209;-73
2023/05/03 04:48:05;;;;;;;17.20;15.40;;;10.70;99.90;;;;;;5035596;28;20171;-73
2023/05/03 04:50:32;;;;;;;19.43;13.10;;;10.90;99.90;;;;;;5017366;28;20454;-73
2023/05/03 04:52:57;;;;;;;12.93;11.60;;;11.10;99.90;;;;;;5035608;28;20261;-73
2023/05/03 04:55:23;;;;;;;12.30;10.60;;;11.30;99.90;;;;;;5017657;28;20472;-73
2023/05/03 04:57:48;;;;;;;14.00;11.40;;;11.40;99.90;;;;;;5035754;28;20206;-74
2023/05/03 05:00:15;;;;;;;12.63;10.63;;;11.10;99.90;;;;;;5035178;28;20245;-73
2023/05/03 05:02:41;;;;;;;10.63;9.50;;;10.90;99.90;;;;;;5017648;28;20179;-74
2023/05/03 05:05:08;;;;;;;14.90;11.73;;;11.00;99.90;;;;;;5035467;28;20418;-74
2023/05/03 05:07:33;;;;;;;14.03;11.77;;;11.00;99.90;;;;;;5035941;28;20206;-74
2023/05/03 05:09:59;;;;;;;15.30;11.40;;;11.20;99.90;;;;;;5036057;28;20944;-75
2023/05/03 05:12:25;;;;;;;11.30;10.10;;;11.00;99.90;;;;;;5017663;28;20179;-73
2023/05/03 05:14:51;;;;;;;12.23;9.63;;;10.80;99.90;;;;;;5036046;28;20167;-74
2023/05/03 05:17:17;;;;;;;14.93;10.47;;;10.70;99.90;;;;;;5035434;28;20924;-74
2023/05/03 05:19:42;;;;;;;26.13;23.47;;;10.80;99.90;;;;;;5035186;28;20217;-73
2023/05/03 05:22:08;;;;;;;11.30;9.90;;;11.00;99.90;;;;;;5018059;28;20173;-74
2023/05/03 05:24:33;;;;;;;13.67;9.70;;;11.00;99.90;;;;;;5035760;28;20516;-73
2023/05/03 05:27:00;;;;;;;11.33;9.70;;;11.10;99.90;;;;;;5018751;28;20170;-73
2023/05/03 05:29:25;;;;;;;11.90;10.70;;;10.90;99.90;;;;;;5037924;28;20238;-74
2023/05/03 05:31:51;;;;;;;10.70;9.60;;;10.70;99.90;;;;;;5037433;28;20447;-74
2023/05/03 05:34:17;;;;;;;17.87;14.63;;;10.50;99.90;;;;;;5020699;28;20643;-74
2023/05/03 05:36:43;;;;;;;12.87;10.20;;;10.60;99.90;;;;;;5039189;28;20468;-74
2023/05/03 05:39:09;;;;;;;12.30;10.90;;;10.70;99.90;;;;;;5039368;28;20196;-74
2023/05/03 05:41:34;;;;;;;15.83;10.60;;;10.90;99.90;;;;;;5035930;28;20611;-74
2023/05/03 05:44:00;;;;;;;11.53;10.03;;;11.10;99.90;;;;;;5035269;28;20168;-74
2023/05/03 05:46:25;;;;;;;13.10;10.83;;;11.20;99.90;;;;;;5034917;28;20170;-74
2023/05/03 05:48:51;;;;;;;11.80;10.30;;;10.80;99.90;;;;;;5034830;28;20258;-74
2023/05/03 05:51:17;;;;;;;11.83;10.63;;;10.80;99.90;;;;;;5034309;28;20281;-75
2023/05/03 05:53:42;;;;;;;12.80;10.63;;;10.70;99.90;;;;;;5034496;28;20175;-74
2023/05/03 05:56:08;;;;;;;13.73;10.97;;;10.60;99.90;;;;;;5034579;28;20178;-74
2023/05/03 05:58:36;;;;;;;12.23;10.50;;;10.80;99.90;;;;;;5016815;28;20175;-74
2023/05/03 06:01:02;;;;;;;12.43;11.13;;;11.00;99.90;;;;;;5036050;28;20626;-72
2023/05/03 06:03:28;;;;;;;12.67;10.63;;;11.00;99.90;;;;;;5032800;28;20512;-72
2023/05/03 06:05:54;;;;;;;12.40;10.97;;;11.20;99.90;;;;;;5034182;28;20472;-73
2023/05/03 06:08:19;;;;;;;13.00;10.93;;;11.40;99.90;;;;;;5034622;28;20398;-74
2023/05/03 06:10:45;;;;;;;15.43;11.73;;;11.60;99.90;;;;;;5031090;28;20745;-74
2023/05/03 06:13:10;;;;;;;12.43;11.13;;;11.40;99.90;;;;;;5016710;28;20596;-73
2023/05/03 06:15:36;;;;;;;13.67;11.73;;;11.50;99.90;;;;;;5019599;28;20642;-73
2023/05/03 06:18:03;;;;;;;13.60;11.93;;;11.60;99.90;;;;;;5034476;28;20186;-73
2023/05/03 06:20:29;;;;;;;11.87;10.70;;;11.70;99.90;;;;;;5016078;28;20344;-74
2023/05/03 06:22:54;;;;;;;14.03;11.33;;;11.90;99.90;;;;;;5033880;28;20431;-73
2023/05/03 06:25:20;;;;;;;12.20;11.00;;;11.90;99.90;;;;;;5034074;28;20172;-72
2023/05/03 06:27:45;;;;;;;16.80;11.33;;;12.20;99.90;;;;;;5034041;28;20177;-73
2023/05/03 06:30:11;;;;;;;14.57;11.63;;;12.30;99.90;;;;;;5033849;28;20195;-72
2023/05/03 06:32:45;;;;;;;13.03;9.60;;;12.30;99.90;;;;;;5034046;28;20605;-74
2023/05/03 06:35:11;;;;;;;14.03;12.53;;;12.20;99.90;;;;;;5033678;28;20231;-73
2023/05/03 06:37:37;;;;;;;15.80;12.30;;;12.20;99.90;;;;;;5033913;28;20434;-73
2023/05/03 06:40:03;;;;;;;12.80;11.47;;;12.20;99.90;;;;;;5033839;28;20266;-74
2023/05/03 06:42:29;;;;;;;12.90;11.47;;;12.30;99.90;;;;;;5015790;28;20715;-71
2023/05/03 06:44:55;;;;;;;14.80;11.73;;;12.20;99.90;;;;;;5033652;28;20419;-70
2023/05/03 06:47:20;;;;;;;14.30;12.17;;;12.10;99.90;;;;;;5033572;28;20994;-70
2023/05/03 06:52:23;;;;;;;15.10;11.90;;;11.70;99.90;;;;;;5030279;28;20257;-70
2023/05/03 06:54:49;;;;;;;14.87;11.90;;;11.70;99.90;;;;;;5033680;28;20880;-70
2023/05/03 06:57:15;;;;;;;17.23;12.40;;;11.80;99.90;;;;;;5032398;28;20213;-69
2023/05/03 06:59:41;;;;;;;14.57;12.27;;;11.60;99.90;;;;;;5015394;28;20391;-69
2023/05/03 07:02:06;;;;;;;12.30;10.97;;;11.50;99.90;;;;;;5033200;28;20189;-69
2023/05/03 07:04:32;;;;;;;14.23;12.37;;;11.40;99.90;;;;;;5015352;28;20178;-71
2023/05/03 07:06:57;;;;;;;14.30;12.00;;;11.40;99.90;;;;;;5032386;28;20640;-71
2023/05/03 07:09:23;;;;;;;14.90;11.83;;;11.70;99.90;;;;;;5033137;28;20172;-70
2023/05/03 07:11:50;;;;;;;14.80;11.23;;;11.90;99.90;;;;;;5032759;28;20225;-72
2023/05/03 07:14:16;;;;;;;19.00;13.63;;;12.20;99.90;;;;;;5033373;28;20169;-72
2023/05/03 07:16:41;;;;;;;14.50;12.63;;;12.50;99.90;;;;;;5032992;28;20410;-73
2023/05/03 07:19:07;;;;;;;14.30;12.13;;;12.60;99.90;;;;;;5032984;28;20254;-72
2023/05/03 07:21:33;;;;;;;14.47;11.70;;;12.80;99.90;;;;;;5014701;28;20573;-72
2023/05/03 07:23:59;;;;;;;13.60;12.20;;;13.10;99.90;;;;;;5032808;28;20206;-72
2023/05/03 07:26:25;;;;;;;15.10;11.30;;;13.20;99.90;;;;;;5032851;28;20399;-69
2023/05/03 07:28:51;;;;;;;13.13;10.70;;;13.20;99.90;;;;;;5032841;28;20520;-69
2023/05/03 07:31:17;;;;;;;11.70;10.50;;;13.30;99.90;;;;;;5032996;28;20431;-69
2023/05/03 07:33:43;;;;;;;13.60;11.07;;;13.00;99.90;;;;;;5032890;28;20414;-69
2023/05/03 07:36:08;;;;;;;11.53;10.33;;;12.70;99.90;;;;;;5032382;28;20786;-69
2023/05/03 07:38:34;;;;;;;11.80;10.70;;;13.10;99.90;;;;;;5032812;28;20176;-70
2023/05/03 07:41:00;;;;;;;15.23;11.47;;;13.20;99.90;;;;;;5014435;28;20926;-68
2023/05/03 07:43:25;;;;;;;12.77;11.40;;;13.40;99.90;;;;;;5015006;28;20211;-70
2023/05/03 07:45:51;;;;;;;11.60;10.57;;;13.40;99.90;;;;;;5032945;28;20608;-70
2023/05/03 07:48:17;;;;;;;12.80;10.60;;;13.70;99.90;;;;;;5032804;28;20164;-69
2023/05/03 07:50:43;;;;;;;10.90;9.90;;;13.80;99.90;;;;;;5032104;28;20207;-70
2023/05/03 07:53:08;;;;;;;11.10;9.80;;;14.00;99.90;;;;;;5032817;28;20190;-69
2023/05/03 07:55:35;;;;;;;10.70;9.13;;;14.30;99.90;;;;;;5033194;28;20427;-70
2023/05/03 07:58:02;;;;;;;13.50;10.80;;;14.40;99.90;;;;;;5032361;28;20160;-71
2023/05/03 08:00:28;;;;;;;12.50;10.90;;;14.40;99.90;;;;;;5032495;28;20464;-74
2023/05/03 08:02:53;;;;;;;14.13;12.63;;;13.90;99.90;;;;;;5032436;28;20788;-72
2023/05/03 08:05:19;;;;;;;17.80;13.10;;;13.80;99.90;;;;;;5012839;28;20176;-73
2023/05/03 08:07:44;;;;;;;15.23;12.07;;;13.80;99.90;;;;;;5024914;28;20195;-72
2023/05/03 08:10:10;;;;;;;11.70;10.50;;;13.80;99.90;;;;;;5012573;28;20249;-69
2023/05/03 08:12:36;;;;;;;12.00;10.77;;;14.10;99.90;;;;;;5012430;28;20252;-74
2023/05/03 08:15:05;;;;;;;14.00;11.23;;;14.20;99.90;;;;;;5012940;28;20404;-70
2023/05/03 08:17:31;;;;;;;11.93;10.67;;;14.30;99.90;;;;;;5012752;28;20178;-71
2023/05/03 08:19:57;;;;;;;11.43;10.30;;;14.10;99.90;;;;;;5013692;28;20437;-69
2023/05/03 08:22:25;;;;;;;11.60;10.50;;;13.90;99.90;;;;;;4998656;28;20813;-71
2023/05/03 08:24:52;;;;;;;11.70;9.93;;;14.00;99.90;;;;;;5016299;28;20176;-71
2023/05/03 08:27:18;;;;;;;11.90;10.60;;;14.10;99.90;;;;;;5015842;28;20411;-70
2023/05/03 08:29:43;;;;;;;12.90;10.60;;;13.80;99.90;;;;;;5015967;28;20405;-73
2023/05/03 08:32:09;;;;;;;11.40;9.60;;;13.80;99.90;;;;;;5015948;28;20187;-72
2023/05/03 08:34:35;;;;;;;12.03;10.93;;;13.80;99.90;;;;;;5016120;28;20207;-74
2023/05/03 08:37:03;;;;;;;14.07;11.43;;;14.00;99.90;;;;;;5015630;28;20644;-74
2023/05/03 08:39:30;;;;;;;12.07;9.83;;;14.20;99.90;;;;;;5015808;28;20207;-74
2023/05/03 08:41:55;;;;;;;12.07;10.40;;;14.40;99.90;;;;;;5015368;28;20463;-74
2023/05/03 08:44:22;;;;;;;13.73;11.00;;;14.40;99.90;;;;;;4998187;28;20408;-70
2023/05/03 08:46:49;;;;;;;13.20;11.17;;;14.60;99.90;;;;;;5015957;28;20255;-71
2023/05/03 08:49:16;;;;;;;11.17;10.00;;;14.60;99.90;;;;;;5015564;28;20934;-70
2023/05/03 08:51:45;;;;;;;11.53;10.13;;;14.70;99.90;;;;;;5015233;28;20537;-73
2023/05/03 08:54:12;;;;;;;12.63;11.43;;;15.00;99.90;;;;;;5015475;28;20411;-73
2023/05/03 08:56:41;;;;;;;10.83;9.17;;;15.00;99.90;;;;;;5015369;28;20437;-71
2023/05/03 08:59:08;;;;;;;12.13;10.93;;;15.00;99.90;;;;;;5016030;28;20427;-73
2023/05/03 09:01:38;;;;;;;10.47;9.37;;;15.20;99.90;;;;;;5015494;28;20468;-73
2023/05/03 09:04:04;;;;;;;11.20;9.80;;;15.20;99.90;;;;;;5015726;28;20406;-73
2023/05/03 09:06:32;;;;;;;11.67;10.50;;;15.30;99.90;;;;;;5015002;28;20399;-72
2023/05/03 09:08:58;;;;;;;11.33;10.23;;;15.30;99.90;;;;;;5015606;28;20431;-73
2023/05/03 09:11:29;;;;;;;12.93;9.47;;;15.30;99.90;;;;;;5014931;28;20465;-73
2023/05/03 09:14:16;;;;;;;11.60;10.30;;;15.60;99.90;;;;;;5015232;28;20399;-71
2023/05/03 09:16:43;;;;;;;10.30;9.27;;;15.90;99.90;;;;;;5015222;28;20411;-70
2023/05/03 09:19:11;;;;;;;11.80;9.47;;;16.10;99.90;;;;;;5015118;28;20415;-69
2023/05/03 09:21:38;;;;;;;12.83;9.03;;;16.00;99.90;;;;;;5015009;28;20458;-71
2023/05/03 09:24:20;;;;;;;11.80;9.63;;;16.10;99.90;;;;;;4997452;28;20466;-71
2023/05/03 09:26:48;;;;;;;10.47;9.47;;;16.30;99.90;;;;;;5014698;28;20403;-71
2023/05/03 09:29:35;;;;;;;10.53;9.20;;;16.10;99.90;;;;;;4997236;28;20796;-71
2023/05/03 09:32:07;;;;;;;10.07;8.90;;;16.00;99.90;;;;;;5014860;28;20438;-75
2023/05/03 09:34:33;;;;;;;9.90;9.00;;;16.20;99.90;;;;;;4997585;28;20893;-70
2023/05/03 09:36:59;;;;;;;11.50;9.87;;;16.50;99.90;;;;;;5014557;28;20415;-71
2023/05/03 09:39:24;;;;;;;10.23;9.20;;;16.70;99.90;;;;;;5014699;28;20425;-70
2023/05/03 09:41:50;;;;;;;10.40;9.40;;;17.00;99.90;;;;;;5014462;28;20207;-70
2023/05/03 09:44:16;;;;;;;11.53;10.33;;;16.60;99.90;;;;;;5014795;28;20180;-70
2023/05/03 09:47:05;;;;;;;10.87;9.17;;;16.40;99.90;;;;;;4996988;28;20577;-73
2023/05/03 09:49:32;;;;;;;9.93;9.00;;;16.60;99.90;;;;;;5005666;28;20423;-75
2023/05/03 09:51:58;;;;;;;9.30;8.37;;;16.40;99.90;;;;;;4996532;28;20952;-74
2023/05/03 09:54:24;;;;;;;11.03;9.93;;;16.80;99.90;;;;;;5014412;28;20418;-73
2023/05/03 09:56:51;;;;;;;12.80;8.37;;;16.80;99.90;;;;;;5014175;28;20465;-73
2023/05/03 09:59:17;;;;;;;9.80;8.80;;;16.70;99.90;;;;;;5014577;28;20798;-72
2023/05/03 10:01:43;;;;;;;9.33;8.33;;;16.60;99.90;;;;;;5014400;28;20493;-73
2023/05/03 10:04:10;;;;;;;8.70;7.90;;;16.70;99.90;;;;;;5014315;28;20793;-70
2023/05/03 10:06:40;;;;;;;9.10;7.37;;;17.30;99.90;;;;;;5014195;28;20168;-72
2023/05/03 10:09:29;;;;;;;10.40;9.40;;;17.30;99.90;;;;;;5015247;28;20772;-72
2023/05/03 10:11:59;;;;;;;10.27;9.27;;;17.20;99.90;;;;;;5029939;28;20801;-72
2023/05/03 10:14:25;;;;;;;9.50;8.60;;;17.30;99.90;;;;;;5032117;28;20415;-72
2023/05/03 10:16:57;;;;;;;9.90;8.33;;;17.80;99.90;;;;;;5015513;28;20460;-74
2023/05/03 10:19:26;;;;;;;8.03;7.23;;;18.10;99.90;;;;;;5014384;28;20379;-74
2023/05/03 10:22:13;;;;;;;9.17;7.70;;;18.30;99.90;;;;;;5013559;28;20949;-73
2023/05/03 10:25:00;;;;;;;7.37;6.67;;;18.20;99.90;;;;;;5013937;28;20961;-72
2023/05/03 10:27:43;;;;;;;10.10;7.20;;;18.40;99.90;;;;;;5013992;28;20411;-72
2023/05/03 10:30:27;;;;;;;9.00;8.10;;;19.00;99.90;;;;;;5014261;28;20779;-68
2023/05/03 10:32:53;;;;;;;8.47;7.67;;;18.70;99.90;;;;;;5014083;28;20839;-71
2023/05/03 10:35:19;;;;;;;8.60;7.80;;;18.30;99.90;;;;;;5013967;28;20407;-71
2023/05/03 10:37:49;;;;;;;9.00;8.10;;;17.90;99.90;;;;;;5013856;28;20888;-71
2023/05/03 10:40:16;;;;;;;8.70;7.90;;;17.80;99.90;;;;;;5015993;28;20575;-71
2023/05/03 10:42:54;;;;;;;7.20;6.60;;;18.10;99.90;;;;;;5032506;28;20500;-71
2023/05/03 10:45:28;;;;;;;10.80;7.23;;;18.10;99.90;;;;;;5033692;28;20857;-71
2023/05/03 10:48:09;;;;;;;7.33;6.63;;;18.30;99.90;;;;;;5033384;28;20382;-71
2023/05/03 10:50:35;;;;;;;7.60;6.30;;;18.40;99.90;;;;;;5032839;28;20452;-71
2023/05/03 10:53:01;;;;;;;6.97;5.97;;;19.30;99.90;;;;;;5033319;28;20410;-71
2023/05/03 10:55:26;;;;;;;7.33;5.70;;;19.70;99.90;;;;;;5033192;28;20972;-71
2023/05/03 10:57:57;;;;;;;7.20;5.90;;;19.40;99.40;;;;;;5033241;28;20203;-72
2023/05/03 11:00:23;;;;;;;8.03;7.33;;;19.70;99.90;;;;;;5033101;28;20195;-71
2023/05/03 11:03:18;;;;;;;6.83;6.10;;;20.60;99.40;;;;;;5032904;28;20522;-69
2023/05/03 11:05:46;;;;;;;8.80;7.90;;;22.10;97.10;;;;;;5032918;28;20495;-70
2023/05/03 11:08:17;;;;;;;7.47;6.40;;;21.70;95.60;;;;;;5033326;28;20550;-72
2023/05/03 11:10:48;;;;;;;7.83;7.13;;;22.10;96.20;;;;;;5032871;28;20442;-73
2023/05/03 11:13:14;;;;;;;6.50;6.00;;;23.20;94.00;;;;;;5032940;28;20492;-74
2023/05/03 11:15:40;;;;;;;7.53;6.83;;;21.20;95.70;;;;;;5032949;28;20907;-73
2023/05/03 11:18:07;;;;;;;7.43;6.40;;;19.80;97.60;;;;;;5033520;28;20958;-72
2023/05/03 11:20:33;;;;;;;6.87;6.17;;;19.50;98.00;;;;;;5032698;28;20454;-71
2023/05/03 11:22:58;;;;;;;6.00;5.50;;;18.90;98.80;;;;;;5032825;28;20436;-73
2023/05/03 11:25:24;;;;;;;5.50;5.07;;;18.80;98.80;;;;;;5032852;28;20191;-72
2023/05/03 11:27:50;;;;;;;6.33;5.73;;;18.80;97.10;;;;;;5032756;28;20189;-72
2023/05/03 11:30:16;;;;;;;6.77;5.90;;;19.30;96.40;;;;;;5033096;28;20728;-76
2023/05/03 11:32:42;;;;;;;6.13;5.63;;;21.00;94.20;;;;;;5032923;28;20164;-76
2023/05/03 11:35:09;;;;;;;6.60;6.00;;;20.80;95.00;;;;;;5032805;28;20415;-76
2023/05/03 11:37:34;;;;;;;6.47;5.87;;;20.30;96.50;;;;;;5032773;28;20206;-76
2023/05/03 11:40:00;;;;;;;7.47;6.20;;;21.10;94.80;;;;;;5033135;28;20410;-71
2023/05/03 11:42:27;;;;;;;5.73;5.23;;;20.40;94.30;;;;;;5031817;28;20186;-73
2023/05/03 11:44:53;;;;;;;5.20;4.60;;;19.50;95.00;;;;;;5032803;28;20401;-73
2023/05/03 11:47:18;;;;;;;5.50;4.73;;;20.50;94.20;;;;;;5033696;28;20897;-73
2023/05/03 11:49:52;;;;;;;6.60;6.00;;;20.70;93.10;;;;;;5033326;28;20953;-71
2023/05/03 11:52:26;;;;;;;6.10;4.83;;;19.40;93.30;;;;;;5032414;28;20206;-71
2023/05/03 11:54:52;;;;;;;5.50;5.00;;;19.10;94.10;;;;;;5035721;28;20412;-74
2023/05/03 11:57:19;;;;;;;5.33;4.93;;;19.10;94.20;;;;;;5036691;28;20410;-77
2023/05/03 11:59:45;;;;;;;5.30;4.67;;;20.40;93.80;;;;;;5037150;28;20507;-77
2023/05/03 12:02:13;;;;;;;5.60;4.80;;;22.50;91.60;;;;;;5036426;28;20494;-77
2023/05/03 12:04:40;;;;;;;5.40;4.90;;;24.90;84.70;;;;;;5036486;28;20406;-78
2023/05/03 12:07:07;;;;;;;6.10;5.60;;;23.80;82.30;;;;;;5036193;28;20402;-76
2023/05/03 12:09:33;;;;;;;6.30;5.70;;;21.70;88.40;;;;;;5034080;28;20425;-73
2023/05/03 12:12:01;;;;;;;7.77;6.43;;;21.40;92.40;;;;;;5035426;28;20503;-74
2023/05/03 12:14:27;;;;;;;9.83;6.20;;;21.30;92.50;;;;;;5005773;28;20840;-74
2023/05/03 12:16:53;;;;;;;6.93;5.40;;;20.60;93.10;;;;;;5016414;28;20407;-73
2023/05/03 12:19:29;;;;;;;6.30;5.70;;;20.60;93.90;;;;;;5016555;28;20419;-73
2023/05/03 12:21:55;;;;;;;5.90;5.40;;;21.70;92.20;;;;;;5016637;28;20552;-74
2023/05/03 12:24:22;;;;;;;8.10;5.77;;;21.80;91.10;;;;;;5016110;28;20490;-75
2023/05/03 12:26:51;;;;;;;5.50;5.00;;;20.90;92.00;;;;;;5015802;28;20427;-73
2023/05/03 12:29:16;;;;;;;6.10;5.50;;;20.80;92.30;;;;;;5016032;28;20399;-73
2023/05/03 12:31:44;;;;;;;7.03;6.30;;;20.20;91.40;;;;;;4998331;28;20434;-73
2023/05/03 12:34:10;;;;;;;6.27;5.67;;;20.90;91.00;;;;;;5016074;28;20179;-75
2023/05/03 12:36:36;;;;;;;7.90;5.50;;;20.50;92.00;;;;;;5015847;28;20411;-73
2023/05/03 12:39:02;;;;;;;5.97;5.40;;;20.50;92.10;;;;;;5016003;28;20411;-72
2023/05/03 12:41:30;;;;;;;4.80;4.40;;;20.70;91.00;;;;;;5026491;28;20879;-74
2023/05/03 12:44:01;;;;;;;4.43;4.10;;;21.10;90.20;;;;;;5035524;28;20402;-72